createdAt,value
2023-03-16T00:00:19.569Z,4.80
2023-03-16T00:02:46.695Z,4.70
2023-03-16T00:05:14.350Z,4.70
2023-03-16T00:07:44.381Z,4.70
2023-03-16T00:10:13.053Z,4.60
2023-03-16T00:12:43.355Z,4.70
2023-03-16T00:15:12.313Z,4.60
2023-03-16T00:17:39.409Z,4.60
2023-03-16T00:20:07.154Z,4.60
2023-03-16T00:22:34.688Z,4.50
2023-03-16T00:25:02.020Z,4.50
2023-03-16T00:27:29.150Z,4.50
2023-03-16T00:29:56.717Z,4.50
2023-03-16T00:32:27.603Z,4.40
2023-03-16T00:34:55.120Z,4.40
2023-03-16T00:37:23.958Z,4.40
2023-03-16T00:39:52.759Z,4.40
2023-03-16T00:42:20.691Z,4.30
2023-03-16T00:44:47.781Z,4.30
2023-03-16T00:47:15.281Z,4.30
2023-03-16T00:49:44.476Z,4.30
2023-03-16T00:52:16.224Z,4.20
2023-03-16T00:54:45.511Z,4.20
2023-03-16T00:57:17.442Z,4.20
2023-03-16T00:59:46.255Z,4.20
2023-03-16T01:02:15.474Z,4.20
2023-03-16T01:04:43.770Z,4.20
2023-03-16T01:07:14.150Z,4.20
2023-03-16T01:09:42.710Z,4.10
2023-03-16T01:12:17.376Z,4.10
2023-03-16T01:14:45.876Z,4.10
2023-03-16T01:17:15.066Z,4.10
2023-03-16T01:19:43.693Z,4.10
2023-03-16T01:22:12.182Z,4.00
2023-03-16T01:24:41.029Z,4.00
2023-03-16T01:27:09.151Z,4.00
2023-03-16T01:29:37.655Z,4.00
2023-03-16T01:32:05.738Z,4.00
2023-03-16T01:34:33.872Z,3.90
2023-03-16T01:37:01.231Z,4.00
2023-03-16T01:39:39.950Z,3.90
2023-03-16T01:42:07.562Z,3.90
2023-03-16T01:44:57.110Z,3.90
2023-03-16T01:47:29.103Z,3.90
2023-03-16T01:49:57.561Z,3.90
2023-03-16T01:52:35.741Z,3.80
2023-03-16T01:55:13.205Z,3.80
2023-03-16T01:57:44.397Z,3.80
2023-03-16T02:00:20.527Z,3.80
2023-03-16T02:03:19.065Z,3.70
2023-03-16T02:05:58.509Z,3.70
2023-03-16T02:08:27.768Z,3.70
2023-03-16T02:10:56.686Z,3.60
2023-03-16T02:13:33.911Z,3.60
2023-03-16T02:16:01.773Z,3.60
2023-03-16T02:18:29.086Z,3.60
2023-03-16T02:21:22.576Z,3.60
2023-03-16T02:23:51.524Z,3.60
2023-03-16T02:26:28.968Z,3.60
2023-03-16T02:29:29.563Z,3.50
2023-03-16T02:32:00.120Z,3.50
2023-03-16T02:34:28.053Z,3.50
2023-03-16T02:36:57.071Z,3.50
2023-03-16T02:39:25.811Z,3.40
2023-03-16T02:41:52.996Z,3.40
2023-03-16T02:44:27.429Z,3.40
2023-03-16T02:47:01.730Z,3.40
2023-03-16T02:49:40.772Z,3.40
2023-03-16T02:52:08.751Z,3.40
2023-03-16T02:54:36.016Z,3.40
2023-03-16T02:57:03.771Z,3.30
2023-03-16T02:59:31.661Z,3.30
2023-03-16T03:01:58.798Z,3.30
2023-03-16T03:04:25.711Z,3.30
2023-03-16T03:06:52.651Z,3.30
2023-03-16T03:09:20.788Z,3.20
2023-03-16T03:11:52.175Z,3.20
2023-03-16T03:14:19.211Z,3.20
2023-03-16T03:16:48.941Z,3.20
2023-03-16T03:19:16.119Z,3.20
2023-03-16T03:21:43.076Z,3.20
2023-03-16T03:24:10.552Z,3.20
2023-03-16T03:26:40.434Z,3.20
2023-03-16T03:29:13.044Z,3.10
2023-03-16T03:31:40.378Z,3.10
2023-03-16T03:34:07.655Z,3.10
2023-03-16T03:36:35.824Z,3.10
2023-03-16T03:39:05.154Z,3.10
2023-03-16T03:41:34.203Z,3.00
2023-03-16T03:44:05.237Z,3.10
2023-03-16T03:46:34.366Z,3.20
2023-03-16T03:49:03.899Z,3.10
2023-03-16T03:51:34.906Z,3.00
2023-03-16T03:54:12.413Z,3.00
2023-03-16T03:56:57.822Z,3.00
2023-03-16T03:59:25.125Z,3.00
2023-03-16T04:02:16.115Z,3.10
2023-03-16T04:04:49.514Z,3.00
2023-03-16T04:07:16.760Z,3.00
2023-03-16T04:09:45.074Z,3.00
2023-03-16T04:12:22.408Z,3.00
2023-03-16T04:14:49.579Z,3.00
2023-03-16T04:17:17.703Z,3.00
2023-03-16T04:19:45.702Z,3.00
2023-03-16T04:22:15.688Z,3.00
2023-03-16T04:24:44.508Z,3.00
2023-03-16T04:27:13.090Z,3.00
2023-03-16T04:29:40.527Z,3.00
2023-03-16T04:32:08.075Z,3.00
2023-03-16T04:34:35.925Z,3.00
2023-03-16T04:37:05.471Z,2.90
2023-03-16T04:39:35.042Z,3.00
2023-03-16T04:42:02.005Z,2.90
2023-03-16T04:44:29.127Z,2.90
2023-03-16T04:46:56.748Z,2.90
2023-03-16T04:49:26.668Z,2.90
2023-03-16T04:51:53.707Z,2.90
2023-03-16T04:54:22.083Z,2.90
2023-03-16T04:56:49.192Z,2.90
2023-03-16T04:59:30.307Z,2.90
2023-03-16T05:02:04.004Z,2.90
2023-03-16T05:04:31.832Z,2.80
2023-03-16T05:06:58.943Z,2.80
2023-03-16T05:09:30.274Z,2.80
2023-03-16T05:11:57.399Z,2.80
2023-03-16T05:14:24.360Z,2.80
2023-03-16T05:17:14.819Z,2.80
2023-03-16T05:19:43.305Z,2.80
2023-03-16T05:22:11.054Z,2.70
2023-03-16T05:24:41.255Z,2.80
2023-03-16T05:27:08.390Z,2.70
2023-03-16T05:29:35.582Z,2.70
2023-03-16T05:32:02.583Z,2.70
2023-03-16T05:34:31.642Z,2.70
2023-03-16T05:36:58.972Z,2.70
2023-03-16T05:39:25.930Z,2.70
2023-03-16T05:41:54.994Z,2.80
2023-03-16T05:44:22.619Z,2.80
2023-03-16T05:47:19.975Z,2.60
2023-03-16T05:49:52.431Z,2.80
2023-03-16T05:52:25.411Z,2.80
2023-03-16T05:54:54.097Z,2.80
2023-03-16T05:57:21.188Z,2.80
2023-03-16T05:59:53.306Z,2.80
2023-03-16T06:02:21.711Z,2.80
2023-03-16T06:04:48.906Z,2.80
2023-03-16T06:07:15.918Z,2.90
2023-03-16T06:09:43.291Z,2.90
2023-03-16T06:12:14.507Z,2.90
2023-03-16T06:14:42.353Z,2.90
2023-03-16T06:17:10.264Z,3.00
2023-03-16T06:19:39.443Z,3.00
2023-03-16T06:22:08.530Z,3.10
2023-03-16T06:24:35.822Z,3.10
2023-03-16T06:27:03.015Z,3.10
2023-03-16T06:29:36.182Z,3.20
2023-03-16T06:32:04.087Z,3.30
2023-03-16T06:34:31.260Z,3.30
2023-03-16T06:36:58.362Z,3.40
2023-03-16T06:39:25.791Z,3.50
2023-03-16T06:41:53.413Z,3.50
2023-03-16T06:44:21.354Z,3.60
2023-03-16T06:47:01.603Z,3.70
2023-03-16T06:49:28.793Z,3.80
2023-03-16T06:51:58.596Z,3.90
2023-03-16T06:54:26.881Z,4.10
2023-03-16T06:56:54.033Z,4.20
2023-03-16T06:59:22.129Z,4.40
2023-03-16T07:01:50.334Z,4.60
2023-03-16T07:04:17.779Z,4.80
2023-03-16T07:06:45.048Z,5.00
2023-03-16T07:09:12.942Z,5.10
2023-03-16T07:11:40.746Z,5.40
2023-03-16T07:14:07.804Z,5.60
2023-03-16T07:16:35.525Z,5.80
2023-03-16T07:19:04.569Z,6.00
2023-03-16T07:21:39.041Z,6.30
2023-03-16T07:24:10.626Z,6.60
2023-03-16T07:26:38.832Z,6.90
2023-03-16T07:29:06.455Z,7.20
2023-03-16T07:31:34.805Z,7.60
2023-03-16T07:34:06.557Z,7.90
2023-03-16T07:36:41.796Z,8.30
2023-03-16T07:39:09.109Z,8.70
2023-03-16T07:41:36.441Z,9.10
2023-03-16T07:44:31.194Z,9.50
2023-03-16T07:46:58.395Z,10.00
2023-03-16T07:49:28.253Z,10.50
2023-03-16T07:51:56.740Z,10.90
2023-03-16T07:54:30.147Z,11.30
2023-03-16T07:56:57.213Z,11.80
2023-03-16T07:59:33.973Z,12.30
2023-03-16T08:02:02.140Z,12.70
2023-03-16T08:04:29.293Z,13.50
2023-03-16T08:07:00.277Z,13.60
2023-03-16T08:09:35.920Z,14.10
2023-03-16T08:12:07.123Z,14.60
2023-03-16T08:14:36.720Z,15.00
2023-03-16T08:17:12.298Z,15.50
2023-03-16T08:19:40.413Z,15.80
2023-03-16T08:22:09.684Z,16.10
2023-03-16T08:24:42.616Z,16.50
2023-03-16T08:27:12.028Z,16.80
2023-03-16T08:29:41.870Z,17.10
2023-03-16T08:32:13.425Z,17.50
2023-03-16T08:34:43.750Z,17.80
2023-03-16T08:37:11.638Z,18.10
2023-03-16T08:39:42.017Z,18.30
2023-03-16T08:42:11.844Z,18.50
2023-03-16T08:44:44.096Z,18.70
2023-03-16T08:47:12.020Z,18.80
2023-03-16T08:49:41.401Z,19.00
2023-03-16T08:52:12.886Z,19.20
2023-03-16T08:54:47.122Z,19.40
2023-03-16T08:57:19.862Z,19.50
2023-03-16T08:59:46.810Z,19.70
2023-03-16T09:02:14.819Z,19.80
2023-03-16T09:04:41.819Z,19.90
2023-03-16T09:07:11.360Z,20.10
2023-03-16T09:09:39.425Z,20.30
2023-03-16T09:12:06.741Z,20.50
2023-03-16T09:14:34.174Z,20.70
2023-03-16T09:17:01.061Z,21.00
2023-03-16T09:19:32.525Z,21.10
2023-03-16T09:22:04.766Z,21.50
2023-03-16T09:24:31.937Z,21.60
2023-03-16T09:26:58.915Z,21.70
2023-03-16T09:29:25.941Z,21.60
2023-03-16T09:31:53.093Z,21.80
2023-03-16T09:34:19.981Z,21.90
2023-03-16T09:36:47.307Z,22.20
2023-03-16T09:39:14.420Z,22.30
2023-03-16T09:42:05.075Z,22.40
2023-03-16T09:44:43.520Z,22.50
2023-03-16T09:47:12.328Z,22.60
2023-03-16T09:49:50.107Z,22.70
2023-03-16T09:52:35.486Z,22.90
2023-03-16T09:55:38.782Z,23.00
2023-03-16T09:58:16.319Z,23.10
2023-03-16T10:01:01.856Z,23.20
2023-03-16T10:03:57.381Z,23.20
2023-03-16T10:06:26.377Z,23.00
2023-03-16T10:09:47.429Z,23.30
2023-03-16T10:12:16.009Z,23.30
2023-03-16T10:14:52.504Z,23.60
2023-03-16T10:17:28.248Z,23.60
2023-03-16T10:20:01.651Z,23.70
2023-03-16T10:22:37.610Z,23.80
2023-03-16T10:25:27.785Z,23.90
2023-03-16T10:27:54.741Z,24.10
2023-03-16T10:30:29.259Z,24.40
2023-03-16T10:33:01.659Z,24.60
2023-03-16T10:35:46.286Z,24.70
2023-03-16T10:38:40.186Z,25.00
2023-03-16T10:41:20.494Z,25.20
2023-03-16T10:43:55.427Z,25.50
2023-03-16T10:46:25.919Z,25.80
2023-03-16T10:49:00.476Z,26.00
2023-03-16T10:51:38.186Z,26.30
2023-03-16T10:54:16.545Z,26.60
2023-03-16T10:56:43.581Z,26.80
2023-03-16T10:59:22.877Z,27.00
2023-03-16T11:01:50.081Z,27.20
2023-03-16T11:04:20.374Z,27.50
2023-03-16T11:06:58.439Z,27.80
2023-03-16T11:09:33.332Z,28.20
2023-03-16T11:12:20.081Z,28.40
2023-03-16T11:14:48.944Z,28.60
2023-03-16T11:17:35.080Z,28.70
2023-03-16T11:20:12.376Z,28.80
2023-03-16T11:22:41.021Z,28.90
2023-03-16T11:25:20.576Z,29.00
2023-03-16T11:28:12.006Z,29.30
2023-03-16T11:30:49.481Z,29.60
2023-03-16T11:33:16.397Z,29.80
2023-03-16T11:36:17.661Z,30.00
2023-03-16T11:39:05.663Z,30.10
2023-03-16T11:42:01.358Z,30.10
2023-03-16T11:45:10.895Z,30.10
2023-03-16T11:48:11.044Z,30.00
2023-03-16T11:50:37.818Z,30.10
2023-03-16T11:53:29.261Z,30.20
2023-03-16T11:56:27.248Z,30.40
2023-03-16T11:59:16.257Z,30.60
2023-03-16T12:02:10.957Z,30.70
2023-03-16T12:04:48.638Z,30.60
2023-03-16T12:07:42.910Z,30.50
2023-03-16T12:10:29.926Z,30.50
2023-03-16T12:13:30.582Z,30.50
2023-03-16T12:16:05.549Z,30.60
2023-03-16T12:18:45.480Z,30.70
2023-03-16T12:21:20.512Z,30.70
2023-03-16T12:23:58.543Z,30.80
2023-03-16T12:26:32.441Z,30.80
2023-03-16T12:29:04.685Z,30.90
2023-03-16T12:31:47.475Z,30.90
2023-03-16T12:34:53.204Z,30.80
2023-03-16T12:37:52.674Z,30.80
2023-03-16T12:40:44.651Z,30.70
2023-03-16T12:43:29.695Z,30.60
2023-03-16T12:46:16.480Z,30.70
2023-03-16T12:48:51.252Z,30.80
2023-03-16T12:51:18.216Z,30.70
2023-03-16T12:54:05.502Z,30.80
2023-03-16T12:56:44.715Z,30.60
2023-03-16T12:59:19.617Z,30.60
2023-03-16T13:01:52.045Z,30.60
2023-03-16T13:04:33.713Z,30.50
2023-03-16T13:07:16.066Z,30.30
2023-03-16T13:10:13.694Z,30.20
2023-03-16T13:12:45.175Z,30.20
2023-03-16T13:15:18.039Z,30.20
2023-03-16T13:17:48.123Z,30.30
2023-03-16T13:20:31.789Z,30.50
2023-03-16T13:23:20.768Z,30.50
2023-03-16T13:26:15.240Z,30.50
2023-03-16T13:28:46.119Z,30.60
2023-03-16T13:31:37.128Z,30.80
2023-03-16T13:34:08.356Z,31.00
2023-03-16T13:36:37.077Z,31.20
2023-03-16T13:39:22.395Z,31.20
2023-03-16T13:42:20.382Z,31.40
2023-03-16T13:44:47.980Z,31.60
2023-03-16T13:47:19.916Z,31.70
2023-03-16T13:49:51.008Z,31.90
2023-03-16T13:52:29.270Z,32.00
2023-03-16T13:54:59.502Z,32.10
2023-03-16T13:57:30.353Z,32.20
2023-03-16T14:00:23.198Z,32.40
2023-03-16T14:02:57.104Z,32.20
2023-03-16T14:05:33.316Z,32.20
2023-03-16T14:08:00.856Z,32.20
2023-03-16T14:10:37.739Z,32.10
2023-03-16T14:13:29.483Z,31.90
2023-03-16T14:16:13.819Z,31.80
2023-03-16T14:18:46.167Z,31.70
2023-03-16T14:21:21.612Z,31.40
2023-03-16T14:24:00.007Z,31.20
2023-03-16T14:26:27.562Z,30.90
2023-03-16T14:29:14.984Z,30.70
2023-03-16T14:31:41.924Z,30.40
2023-03-16T14:34:39.425Z,30.20
2023-03-16T14:37:13.148Z,29.90
2023-03-16T14:39:41.395Z,29.70
2023-03-16T14:42:22.152Z,29.50
2023-03-16T14:44:49.646Z,29.20
2023-03-16T14:47:28.211Z,28.90
2023-03-16T14:50:01.644Z,28.60
2023-03-16T14:52:31.754Z,28.40
2023-03-16T14:55:03.348Z,28.20
2023-03-16T14:57:31.250Z,27.90
2023-03-16T14:59:58.257Z,27.70
2023-03-16T15:02:32.240Z,27.60
2023-03-16T15:05:01.347Z,27.30
2023-03-16T15:07:36.614Z,27.10
2023-03-16T15:10:22.089Z,26.90
2023-03-16T15:12:54.653Z,26.80
2023-03-16T15:15:27.406Z,26.60
2023-03-16T15:17:54.999Z,26.50
2023-03-16T15:20:32.996Z,26.40
2023-03-16T15:23:01.620Z,26.20
2023-03-16T15:25:37.475Z,26.10
2023-03-16T15:28:26.905Z,25.90
2023-03-16T15:30:59.764Z,25.60
2023-03-16T15:33:27.513Z,25.40
2023-03-16T15:35:57.470Z,25.20
2023-03-16T15:38:28.469Z,25.00
2023-03-16T15:40:55.915Z,24.80
2023-03-16T15:43:27.419Z,24.60
2023-03-16T15:45:57.315Z,24.50
2023-03-16T15:48:25.317Z,24.30
2023-03-16T15:50:56.496Z,24.10
2023-03-16T15:53:35.700Z,23.90
2023-03-16T15:56:08.095Z,23.70
2023-03-16T15:58:36.696Z,23.50
2023-03-16T16:01:07.647Z,23.30
2023-03-16T16:03:35.039Z,23.10
2023-03-16T16:06:02.031Z,22.80
2023-03-16T16:08:28.903Z,22.50
2023-03-16T16:10:56.630Z,22.20
2023-03-16T16:13:42.930Z,21.90
2023-03-16T16:16:14.567Z,21.50
2023-03-16T16:18:41.972Z,21.20
2023-03-16T16:21:22.379Z,20.90
2023-03-16T16:23:52.162Z,20.50
2023-03-16T16:26:48.201Z,20.10
2023-03-16T16:29:22.220Z,19.80
2023-03-16T16:31:51.413Z,19.10
2023-03-16T16:34:23.925Z,18.90
2023-03-16T16:36:51.147Z,18.50
2023-03-16T16:39:18.067Z,18.10
2023-03-16T16:41:45.032Z,17.70
2023-03-16T16:44:23.981Z,17.30
2023-03-16T16:46:52.782Z,16.90
2023-03-16T16:49:31.157Z,16.60
2023-03-16T16:51:59.559Z,16.20
2023-03-16T16:54:30.300Z,15.90
2023-03-16T16:56:59.205Z,15.60
2023-03-16T16:59:33.188Z,15.20
2023-03-16T17:02:03.248Z,15.00
2023-03-16T17:04:30.704Z,14.70
2023-03-16T17:07:01.945Z,14.40
2023-03-16T17:09:30.669Z,14.00
2023-03-16T17:12:02.214Z,13.90
2023-03-16T17:14:30.983Z,13.70
2023-03-16T17:17:04.712Z,13.40
2023-03-16T17:19:32.680Z,13.20
2023-03-16T17:21:59.981Z,13.10
2023-03-16T17:24:27.484Z,12.90
2023-03-16T17:26:59.066Z,12.70
2023-03-16T17:29:31.563Z,12.50
2023-03-16T17:32:04.788Z,12.30
2023-03-16T17:34:34.406Z,12.20
2023-03-16T17:37:02.206Z,12.10
2023-03-16T17:39:33.712Z,11.90
2023-03-16T17:42:07.673Z,11.80
2023-03-16T17:44:39.929Z,11.70
2023-03-16T17:47:25.532Z,11.60
2023-03-16T17:49:53.484Z,11.40
2023-03-16T17:52:26.339Z,11.30
2023-03-16T17:54:54.765Z,11.30
2023-03-16T17:57:33.639Z,11.20
2023-03-16T18:00:07.355Z,11.10
2023-03-16T18:02:58.911Z,11.00
2023-03-16T18:05:33.794Z,10.90
2023-03-16T18:08:23.737Z,10.80
2023-03-16T18:11:00.446Z,10.70
2023-03-16T18:13:35.052Z,10.60
2023-03-16T18:16:05.667Z,10.50
2023-03-16T18:18:37.377Z,10.40
2023-03-16T18:21:04.718Z,10.40
2023-03-16T18:23:34.629Z,10.40
2023-03-16T18:26:04.013Z,10.30
2023-03-16T18:28:32.602Z,10.30
2023-03-16T18:31:01.600Z,10.30
2023-03-16T18:33:38.028Z,10.30
2023-03-16T18:36:16.181Z,10.20
2023-03-16T18:38:46.056Z,10.30
2023-03-16T18:41:22.666Z,10.20
2023-03-16T18:43:55.475Z,10.20
2023-03-16T18:46:34.257Z,10.30
2023-03-16T18:49:04.923Z,10.20
2023-03-16T18:51:31.960Z,10.20
2023-03-16T18:53:59.590Z,10.20
2023-03-16T18:56:28.600Z,10.20
2023-03-16T18:58:56.566Z,10.20
2023-03-16T19:01:32.845Z,10.20
2023-03-16T19:04:01.567Z,10.40
2023-03-16T19:06:35.441Z,10.20
2023-03-16T19:09:14.957Z,10.20
2023-03-16T19:11:44.324Z,10.20
2023-03-16T19:14:24.831Z,10.20
2023-03-16T19:16:52.737Z,10.20
2023-03-16T19:19:21.882Z,10.20
2023-03-16T19:22:13.760Z,10.40
2023-03-16T19:24:51.686Z,10.10
2023-03-16T19:27:36.931Z,10.10
2023-03-16T19:30:05.187Z,10.10
2023-03-16T19:32:32.263Z,10.10
2023-03-16T19:34:59.478Z,10.10
2023-03-16T19:37:29.925Z,10.00
2023-03-16T19:39:57.081Z,10.00
2023-03-16T19:42:36.228Z,10.00
2023-03-16T19:45:05.052Z,9.90
2023-03-16T19:47:34.851Z,9.90
2023-03-16T19:50:01.989Z,9.80
2023-03-16T19:52:31.410Z,9.80
2023-03-16T19:54:58.403Z,9.80
2023-03-16T19:57:25.437Z,9.70
2023-03-16T19:59:56.469Z,9.70
2023-03-16T20:02:28.049Z,9.70
2023-03-16T20:04:55.848Z,9.70
2023-03-16T20:07:22.970Z,9.70
2023-03-16T20:09:50.715Z,9.70
2023-03-16T20:12:27.574Z,9.70
2023-03-16T20:14:57.335Z,9.70
2023-03-16T20:17:28.245Z,9.70
2023-03-16T20:19:57.123Z,9.70
2023-03-16T20:22:28.300Z,9.70
2023-03-16T20:24:55.870Z,9.80
2023-03-16T20:27:24.193Z,9.70
2023-03-16T20:29:54.430Z,9.80
2023-03-16T20:32:25.784Z,9.80
2023-03-16T20:34:53.946Z,9.80
2023-03-16T20:37:27.006Z,9.80
2023-03-16T20:39:57.256Z,9.80
2023-03-16T20:42:30.069Z,9.80
2023-03-16T20:44:57.534Z,9.90
2023-03-16T20:47:26.620Z,9.90
2023-03-16T20:49:59.384Z,9.90
2023-03-16T20:52:30.870Z,9.90
2023-03-16T20:54:58.688Z,9.90
2023-03-16T20:57:29.018Z,9.90
2023-03-16T20:59:56.447Z,9.90
2023-03-16T21:02:37.295Z,9.90
2023-03-16T21:05:08.110Z,10.00
2023-03-16T21:07:37.423Z,10.00
2023-03-16T21:10:04.939Z,10.00
2023-03-16T21:12:34.745Z,10.00
2023-03-16T21:15:15.080Z,10.10
2023-03-16T21:17:41.998Z,10.00
2023-03-16T21:20:20.453Z,10.00
2023-03-16T21:22:47.633Z,10.00
2023-03-16T21:25:37.335Z,10.00
2023-03-16T21:28:05.390Z,10.00
2023-03-16T21:30:38.096Z,10.10
2023-03-16T21:33:35.012Z,10.00
2023-03-16T21:36:06.057Z,10.00
2023-03-16T21:38:33.342Z,10.00
2023-03-16T21:41:00.972Z,10.00
2023-03-16T21:43:28.195Z,9.90
2023-03-16T21:45:57.350Z,10.00
2023-03-16T21:48:32.393Z,10.00
2023-03-16T21:50:59.561Z,9.90
2023-03-16T21:53:31.622Z,9.90
2023-03-16T21:56:00.077Z,9.90
2023-03-16T21:58:27.315Z,9.90
2023-03-16T22:00:55.524Z,9.80
2023-03-16T22:03:47.684Z,9.90
2023-03-16T22:06:16.961Z,9.80
2023-03-16T22:08:43.963Z,9.70
2023-03-16T22:11:19.685Z,9.70
2023-03-16T22:13:47.035Z,9.60
2023-03-16T22:16:17.871Z,9.60
2023-03-16T22:18:48.694Z,9.60
2023-03-16T22:21:37.529Z,9.50
2023-03-16T22:24:12.241Z,9.50
2023-03-16T22:26:39.170Z,9.50
2023-03-16T22:29:23.501Z,9.50
2023-03-16T22:31:53.808Z,9.50
2023-03-16T22:34:30.234Z,9.50
2023-03-16T22:36:57.920Z,9.50
2023-03-16T22:39:25.039Z,9.50
2023-03-16T22:41:52.335Z,9.50
2023-03-16T22:44:23.095Z,9.50
2023-03-16T22:46:50.934Z,9.50
2023-03-16T22:49:27.211Z,9.50
2023-03-16T22:51:56.743Z,9.50
2023-03-16T22:54:27.308Z,9.50
2023-03-16T22:56:54.643Z,9.50
2023-03-16T22:59:24.705Z,9.50
2023-03-16T23:01:51.714Z,9.50
2023-03-16T23:04:25.797Z,9.50
2023-03-16T23:06:54.550Z,9.50
2023-03-16T23:09:22.274Z,9.50
2023-03-16T23:11:54.749Z,9.50
2023-03-16T23:14:25.692Z,9.50
2023-03-16T23:16:53.593Z,9.40
2023-03-16T23:19:34.208Z,9.40
2023-03-16T23:22:05.352Z,9.40
2023-03-16T23:24:34.075Z,9.40
2023-03-16T23:27:01.158Z,9.40
2023-03-16T23:29:28.784Z,9.40
2023-03-16T23:31:56.474Z,9.30
2023-03-16T23:34:25.171Z,9.30
2023-03-16T23:36:52.535Z,9.30
2023-03-16T23:39:19.839Z,9.30
2023-03-16T23:41:49.864Z,9.30
2023-03-16T23:44:24.008Z,9.20
2023-03-16T23:46:51.437Z,9.20
2023-03-16T23:49:22.976Z,9.10
2023-03-16T23:51:50.868Z,9.10
2023-03-16T23:54:23.137Z,9.10
2023-03-16T23:56:50.822Z,9.00
2023-03-16T23:59:19.188Z,9.00
